createdAt,value
2023-03-26T00:02:18.653Z,71.39
2023-03-26T00:06:12.767Z,71.37
2023-03-26T00:09:53.435Z,71.23
2023-03-26T00:13:32.595Z,71.68
2023-03-26T00:16:49.601Z,71.96
2023-03-26T00:20:30.351Z,72.09
2023-03-26T00:24:08.251Z,72.14
2023-03-26T00:27:45.501Z,72.13
2023-03-26T00:31:45.395Z,71.79
2023-03-26T00:35:17.590Z,71.77
2023-03-26T00:38:39.063Z,71.64
2023-03-26T00:42:16.529Z,71.69
2023-03-26T00:45:54.625Z,72.02
2023-03-26T00:49:30.599Z,72.16
2023-03-26T00:53:06.052Z,72.36
2023-03-26T00:56:44.009Z,72.22
2023-03-26T01:00:28.936Z,72.50
2023-03-26T01:04:31.078Z,72.55
2023-03-26T01:07:36.979Z,72.48
2023-03-26T01:11:35.356Z,72.56
2023-03-26T01:14:55.155Z,72.48
2023-03-26T01:18:34.319Z,72.54
2023-03-26T01:22:11.972Z,72.62
2023-03-26T01:25:54.838Z,72.60
2023-03-26T01:29:48.255Z,72.78
2023-03-26T01:33:20.429Z,72.75
2023-03-26T01:36:50.668Z,72.96
2023-03-26T01:40:43.274Z,72.85
2023-03-26T01:44:51.608Z,73.03
2023-03-26T01:47:56.157Z,73.07
2023-03-26T01:51:34.888Z,72.84
2023-03-26T01:55:14.350Z,72.78
2023-03-26T01:59:21.464Z,73.22
2023-03-26T02:03:05.174Z,73.67
2023-03-26T02:06:19.744Z,74.13
2023-03-26T02:09:49.986Z,74.14
2023-03-26T02:13:45.244Z,74.50
2023-03-26T02:17:01.295Z,74.53
2023-03-26T02:20:38.848Z,74.95
2023-03-26T02:24:39.876Z,74.79
2023-03-26T02:27:54.553Z,74.50
2023-03-26T02:31:50.785Z,75.05
2023-03-26T02:35:10.227Z,75.69
2023-03-26T02:38:47.105Z,75.41
2023-03-26T02:42:44.930Z,75.34
2023-03-26T02:46:21.583Z,75.55
2023-03-26T02:49:40.210Z,76.04
2023-03-26T02:53:17.879Z,76.05
2023-03-26T02:57:15.677Z,76.27
2023-03-26T03:00:37.702Z,76.30
2023-03-26T03:04:33.944Z,76.46
2023-03-26T03:07:58.265Z,76.48
2023-03-26T03:11:49.655Z,76.33
2023-03-26T03:15:30.499Z,76.20
2023-03-26T03:18:47.588Z,76.16
2023-03-26T03:22:23.624Z,76.14
2023-03-26T03:26:02.826Z,76.40
2023-03-26T03:29:58.629Z,76.77
2023-03-26T03:33:42.353Z,76.75
2023-03-26T03:36:58.862Z,76.59
2023-03-26T03:40:36.674Z,77.06
2023-03-26T03:44:14.359Z,76.81
2023-03-26T03:48:10.788Z,77.35
2023-03-26T03:51:30.601Z,77.48
2023-03-26T03:55:07.637Z,77.36
2023-03-26T04:12:16.600Z,78.34
2023-03-26T04:15:54.895Z,78.47
2023-03-26T04:19:54.320Z,78.45
2023-03-26T04:23:14.199Z,78.23
2023-03-26T04:26:48.031Z,77.83
2023-03-26T04:30:24.736Z,77.84
2023-03-26T04:34:24.408Z,77.64
2023-03-26T04:37:49.826Z,77.89
2023-03-26T04:41:27.456Z,78.10
2023-03-26T04:45:03.076Z,78.42
2023-03-26T04:48:38.879Z,78.39
2023-03-26T04:52:36.514Z,78.52
2023-03-26T04:56:03.631Z,78.56
2023-03-26T04:59:36.150Z,78.50
2023-03-26T05:03:13.522Z,78.54
2023-03-26T05:06:50.787Z,78.81
2023-03-26T05:10:47.063Z,79.00
2023-03-26T05:14:06.028Z,79.42
2023-03-26T05:17:44.157Z,79.43
2023-03-26T05:21:22.505Z,79.58
2023-03-26T05:24:58.987Z,79.46
2023-03-26T05:28:37.130Z,79.53
2023-03-26T05:32:14.486Z,79.57
2023-03-26T05:36:12.547Z,80.11
2023-03-26T05:39:30.121Z,80.46
2023-03-26T05:43:29.400Z,80.85
2023-03-26T05:46:52.943Z,81.18
2023-03-26T05:50:51.516Z,81.60
2023-03-26T05:54:26.540Z,81.47
2023-03-26T05:58:08.889Z,81.02
2023-03-26T06:01:29.870Z,80.97
2023-03-26T06:05:10.138Z,80.87
2023-03-26T06:09:06.570Z,81.20
2023-03-26T06:12:24.374Z,81.14
2023-03-26T06:16:00.853Z,80.90
2023-03-26T06:19:38.509Z,80.66
2023-03-26T06:23:34.957Z,80.56
2023-03-26T06:27:12.646Z,80.30
2023-03-26T06:30:53.959Z,80.41
2023-03-26T06:34:31.448Z,80.39
2023-03-26T06:38:27.943Z,79.87
2023-03-26T06:41:47.334Z,79.29
2023-03-26T06:45:45.128Z,79.10
2023-03-26T06:49:25.443Z,79.14
2023-03-26T06:53:04.299Z,78.97
2023-03-26T06:56:46.178Z,78.94
2023-03-26T07:00:08.702Z,78.84
2023-03-26T07:03:42.582Z,78.43
2023-03-26T07:07:21.831Z,78.29
2023-03-26T07:10:58.055Z,78.37
2023-03-26T07:14:38.315Z,78.30
2023-03-26T07:18:32.271Z,78.20
2023-03-26T07:21:51.527Z,78.12
2023-03-26T07:25:32.012Z,78.00
2023-03-26T07:29:44.138Z,78.41
2023-03-26T07:33:44.558Z,78.51
2023-03-26T07:37:20.130Z,79.28
2023-03-26T07:40:53.328Z,80.03
2023-03-26T07:44:29.869Z,80.81
2023-03-26T07:47:59.022Z,81.12
2023-03-26T07:51:36.377Z,81.49
2023-03-26T07:55:15.695Z,81.13
2023-03-26T07:58:57.984Z,81.10
2023-03-26T08:02:41.272Z,81.47
2023-03-26T08:06:35.271Z,81.44
2023-03-26T08:10:17.480Z,81.28
2023-03-26T08:13:53.888Z,81.35
2023-03-26T08:17:36.246Z,81.45
2023-03-26T08:21:22.974Z,81.32
2023-03-26T08:25:17.106Z,81.28
2023-03-26T08:28:25.638Z,81.39
2023-03-26T08:31:58.187Z,81.11
2023-03-26T08:35:35.441Z,80.73
2023-03-26T08:39:14.404Z,80.62
2023-03-26T08:43:20.876Z,80.64
2023-03-26T08:47:28.303Z,80.52
2023-03-26T08:50:42.166Z,80.59
2023-03-26T08:54:41.424Z,79.83
2023-03-26T08:58:20.970Z,79.52
2023-03-26T09:01:45.567Z,79.39
2023-03-26T09:05:36.275Z,79.24
2023-03-26T09:09:07.664Z,78.79
2023-03-26T09:12:54.845Z,77.92
2023-03-26T09:16:22.275Z,77.72
2023-03-26T09:20:15.378Z,76.25
2023-03-26T09:23:53.974Z,76.14
2023-03-26T09:27:15.678Z,75.13
2023-03-26T09:31:07.964Z,75.32
2023-03-26T09:34:50.677Z,75.12
2023-03-26T09:38:41.395Z,73.88
2023-03-26T09:42:00.647Z,72.32
2023-03-26T09:46:15.575Z,72.37
2023-03-26T09:49:43.691Z,72.40
2023-03-26T09:53:37.000Z,71.07
2023-03-26T09:57:25.495Z,71.67
2023-03-26T10:00:47.342Z,71.93
2023-03-26T10:04:13.300Z,71.17
2023-03-26T10:08:04.850Z,70.92
2023-03-26T10:12:13.193Z,70.85
2023-03-26T10:15:18.715Z,70.48
2023-03-26T10:19:28.873Z,70.46
2023-03-26T10:23:18.046Z,70.40
2023-03-26T10:26:39.568Z,70.27
2023-03-26T10:30:33.872Z,70.60
2023-03-26T10:34:28.762Z,70.27
2023-03-26T10:37:46.001Z,69.96
2023-03-26T10:41:35.241Z,69.83
2023-03-26T10:45:13.582Z,68.80
2023-03-26T10:48:42.080Z,67.61
2023-03-26T10:52:52.216Z,66.77
2023-03-26T10:56:27.726Z,67.04
2023-03-26T10:59:33.360Z,66.70
2023-03-26T11:03:53.600Z,67.23
2023-03-26T11:07:26.441Z,67.14
2023-03-26T11:10:48.790Z,67.23
2023-03-26T11:14:40.354Z,67.52
2023-03-26T11:18:12.082Z,67.10
2023-03-26T11:21:49.033Z,67.02
2023-03-26T11:25:36.116Z,67.60
2023-03-26T11:29:05.304Z,67.00
2023-03-26T11:32:47.814Z,67.83
2023-03-26T11:36:06.007Z,68.43
2023-03-26T11:39:48.734Z,69.02
2023-03-26T11:43:36.338Z,69.59
2023-03-26T11:46:58.878Z,69.93
2023-03-26T11:50:55.401Z,69.30
2023-03-26T11:54:10.879Z,69.15
2023-03-26T11:57:53.795Z,68.82
2023-03-26T12:01:40.505Z,68.01
2023-03-26T12:05:12.922Z,67.72
2023-03-26T12:08:39.943Z,67.29
2023-03-26T12:12:21.668Z,66.24
2023-03-26T12:15:58.926Z,67.04
2023-03-26T12:19:42.220Z,67.37
2023-03-26T12:23:55.729Z,67.05
2023-03-26T12:27:20.015Z,65.97
2023-03-26T12:31:03.943Z,65.12
2023-03-26T12:34:19.254Z,63.62
2023-03-26T12:37:51.816Z,62.66
2023-03-26T12:44:43.489Z,62.85
2023-03-26T12:45:13.724Z,62.43
2023-03-26T12:49:05.819Z,61.31
2023-03-26T12:52:53.363Z,60.02
2023-03-26T12:56:36.550Z,58.89
2023-03-26T13:00:24.716Z,58.82
2023-03-26T13:04:05.295Z,58.47
2023-03-26T13:07:41.653Z,58.11
2023-03-26T13:11:14.083Z,57.13
2023-03-26T13:14:47.891Z,56.28
2023-03-26T13:18:23.918Z,56.32
2023-03-26T13:21:53.655Z,56.53
2023-03-26T13:25:54.106Z,57.37
2023-03-26T13:29:17.544Z,56.72
2023-03-26T13:32:45.417Z,55.32
2023-03-26T13:36:24.470Z,55.77
2023-03-26T13:40:25.435Z,56.45
2023-03-26T13:43:50.057Z,56.12
2023-03-26T13:47:19.777Z,55.98
2023-03-26T13:51:25.487Z,57.38
2023-03-26T13:55:02.756Z,57.80
2023-03-26T13:58:08.917Z,60.52
2023-03-26T14:01:56.013Z,62.37
2023-03-26T14:05:27.764Z,62.96
2023-03-26T14:09:47.657Z,63.18
2023-03-26T14:13:00.331Z,63.20
2023-03-26T14:16:39.749Z,63.64
2023-03-26T14:21:10.081Z,63.69
2023-03-26T14:24:20.890Z,63.04
2023-03-26T14:28:16.193Z,63.41
2023-03-26T14:31:38.988Z,63.04
2023-03-26T14:35:35.195Z,63.05
2023-03-26T14:38:53.370Z,63.18
2023-03-26T14:42:43.052Z,63.09
2023-03-26T14:46:37.062Z,63.18
2023-03-26T14:50:26.652Z,63.33
2023-03-26T14:54:00.594Z,63.25
2023-03-26T14:57:46.374Z,63.35
2023-03-26T15:01:21.064Z,63.10
2023-03-26T15:04:48.435Z,63.11
2023-03-26T15:08:21.655Z,63.24
2023-03-26T15:12:21.219Z,63.31
2023-03-26T15:16:00.718Z,63.29
2023-03-26T15:19:41.519Z,63.48
2023-03-26T15:23:03.608Z,63.28
2023-03-26T15:27:18.766Z,63.26
2023-03-26T15:31:09.092Z,63.17
2023-03-26T15:34:35.890Z,62.92
2023-03-26T15:38:14.544Z,62.84
2023-03-26T15:41:41.525Z,62.97
2023-03-26T15:45:27.597Z,62.94
2023-03-26T15:49:18.268Z,62.44
2023-03-26T15:52:57.060Z,62.49
2023-03-26T15:56:32.387Z,62.32
2023-03-26T16:00:16.410Z,62.58
2023-03-26T16:03:44.208Z,62.89
2023-03-26T16:07:11.159Z,63.00
2023-03-26T16:10:59.904Z,63.13
2023-03-26T16:14:39.938Z,63.24
2023-03-26T16:18:10.256Z,63.17
2023-03-26T16:21:33.005Z,63.44
2023-03-26T16:25:52.676Z,63.51
2023-03-26T16:29:14.272Z,63.57
2023-03-26T16:33:15.422Z,63.58
2023-03-26T16:36:18.439Z,63.90
2023-03-26T16:40:22.400Z,63.86
2023-03-26T16:44:14.894Z,63.85
2023-03-26T16:47:54.176Z,63.99
2023-03-26T16:51:25.704Z,63.99
2023-03-26T16:54:57.806Z,64.11
2023-03-26T16:58:44.276Z,64.21
2023-03-26T17:02:14.311Z,64.34
2023-03-26T17:05:53.248Z,64.65
2023-03-26T17:09:23.580Z,65.43
2023-03-26T17:13:07.847Z,65.37
2023-03-26T17:16:49.408Z,65.96
2023-03-26T17:20:37.688Z,66.37
2023-03-26T17:24:06.309Z,66.43
2023-03-26T17:27:59.312Z,67.24
2023-03-26T17:31:10.868Z,67.72
2023-03-26T17:34:47.662Z,67.37
2023-03-26T17:38:17.153Z,67.85
2023-03-26T17:42:13.135Z,69.37
2023-03-26T17:46:03.157Z,69.46
2023-03-26T17:49:35.869Z,68.91
2023-03-26T17:53:01.131Z,69.32
2023-03-26T17:56:32.332Z,70.49
2023-03-26T18:00:07.572Z,71.63
2023-03-26T18:04:12.311Z,70.78
2023-03-26T18:08:02.097Z,72.24
2023-03-26T18:11:31.653Z,75.23
2023-03-26T18:15:48.219Z,72.83
2023-03-26T18:19:18.437Z,72.34
2023-03-26T18:22:53.142Z,72.44
2023-03-26T18:26:33.885Z,72.54
2023-03-26T18:30:25.940Z,72.33
2023-03-26T18:33:45.421Z,72.19
2023-03-26T18:37:24.049Z,72.16
2023-03-26T18:40:46.367Z,72.21
2023-03-26T18:44:40.799Z,71.85
2023-03-26T18:48:06.201Z,71.47
2023-03-26T18:51:50.124Z,71.59
2023-03-26T18:55:15.466Z,71.60
2023-03-26T18:58:52.616Z,71.71
2023-03-26T19:02:58.106Z,71.90
2023-03-26T19:06:10.422Z,72.47
2023-03-26T19:09:46.043Z,72.59
2023-03-26T19:13:23.538Z,72.35
2023-03-26T19:17:21.245Z,72.05
2023-03-26T19:20:46.362Z,72.01
2023-03-26T19:24:19.762Z,72.09
2023-03-26T19:27:55.031Z,72.54
2023-03-26T19:31:38.850Z,72.41
2023-03-26T19:35:21.800Z,72.57
2023-03-26T19:39:12.167Z,73.22
2023-03-26T19:42:27.657Z,73.11
2023-03-26T19:46:06.402Z,73.38
2023-03-26T19:49:53.103Z,73.83
2023-03-26T19:53:28.527Z,74.05
2023-03-26T19:56:55.363Z,74.68
2023-03-26T20:00:36.485Z,75.14
2023-03-26T20:04:12.334Z,75.01
2023-03-26T20:07:52.022Z,74.76
2023-03-26T20:11:46.397Z,74.64
2023-03-26T20:15:22.620Z,74.42
2023-03-26T20:18:41.473Z,74.41
2023-03-26T20:22:23.625Z,74.65
2023-03-26T20:26:17.786Z,74.32
2023-03-26T20:29:36.574Z,74.17
2023-03-26T20:33:32.000Z,74.50
2023-03-26T20:36:57.127Z,75.00
2023-03-26T20:40:27.405Z,75.29
2023-03-26T20:44:26.214Z,75.57
2023-03-26T20:47:43.154Z,75.50
2023-03-26T20:51:20.502Z,75.34
2023-03-26T20:55:21.498Z,75.26
2023-03-26T20:58:35.971Z,75.56
2023-03-26T21:02:13.908Z,75.35
2023-03-26T21:05:52.579Z,75.80
2023-03-26T21:09:35.480Z,75.57
2023-03-26T21:13:12.941Z,75.74
2023-03-26T21:16:47.327Z,76.60
2023-03-26T21:20:23.818Z,76.69
2023-03-26T21:24:43.209Z,76.54
2023-03-26T21:28:17.362Z,76.62
2023-03-26T21:31:24.869Z,76.64
2023-03-26T21:35:05.202Z,77.16
2023-03-26T21:39:00.615Z,77.49
2023-03-26T21:42:18.894Z,77.51
2023-03-26T21:46:14.453Z,76.93
2023-03-26T21:49:32.958Z,76.99
2023-03-26T21:53:29.778Z,77.28
2023-03-26T21:57:21.205Z,76.95
2023-03-26T22:00:37.154Z,76.86
2023-03-26T22:04:26.572Z,76.72
2023-03-26T22:07:59.661Z,76.66
2023-03-26T22:11:18.743Z,77.15
2023-03-26T22:15:17.560Z,77.08
2023-03-26T22:18:34.431Z,77.09
2023-03-26T22:22:12.488Z,76.97
2023-03-26T22:26:08.252Z,77.04
2023-03-26T22:29:45.938Z,77.06
2023-03-26T22:33:05.269Z,77.38
2023-03-26T22:37:01.889Z,77.85
2023-03-26T22:40:20.572Z,79.93
2023-03-26T22:44:01.521Z,78.80
2023-03-26T22:47:35.629Z,78.54
2023-03-26T22:51:13.307Z,78.53
2023-03-26T22:54:50.682Z,78.40
2023-03-26T22:58:29.234Z,78.36
2023-03-26T23:02:09.810Z,78.53
2023-03-26T23:05:44.223Z,78.47
2023-03-26T23:09:22.706Z,79.19
2023-03-26T23:13:00.806Z,78.95
2023-03-26T23:16:38.728Z,79.22
2023-03-26T23:20:15.269Z,78.95
2023-03-26T23:23:52.414Z,79.66
2023-03-26T23:27:30.237Z,79.12
2023-03-26T23:31:12.484Z,79.78
2023-03-26T23:34:52.276Z,79.37
2023-03-26T23:38:24.688Z,79.38
2023-03-26T23:42:00.757Z,79.48
2023-03-26T23:45:58.877Z,80.28
2023-03-26T23:49:16.819Z,80.54
2023-03-26T23:52:54.127Z,81.25
2023-03-26T23:56:50.948Z,80.80
